Time,TemperatureF,DewpointF,PressureIn,WindDirection,WindDirectionDegrees,WindSpeedMPH,WindSpeedGustMPH,Humidity,HourlyPrecipIn,Conditions,Clouds,dailyrainin,SoftwareType,DateUTC
2013-06-12 00:00:00,53.3,52.5,29.60,NW,309,0.0,1.0,97,0.00,,,0.00,Wunderground v.1.15,2013-06-12 04:00:00,
2013-06-12 00:06:00,53.3,52.5,29.60,NW,309,0.0,1.0,97,0.00,,,0.00,Wunderground v.1.15,2013-06-12 04:06:00,
2013-06-12 00:15:00,53.3,52.5,29.60,NW,309,0.0,0.0,97,0.00,,,0.01,Wunderground v.1.15,2013-06-12 04:15:00,
2013-06-12 00:26:00,53.2,52.4,29.60,NW,309,0.0,0.0,97,0.00,,,0.01,Wunderground v.1.15,2013-06-12 04:26:00,
2013-06-12 00:36:00,53.3,52.5,29.60,NW,309,0.0,0.0,97,0.00,,,0.01,Wunderground v.1.15,2013-06-12 04:36:00,
2013-06-12 00:41:00,53.3,52.5,29.60,NW,309,0.0,0.0,97,0.00,,,0.01,Wunderground v.1.15,2013-06-12 04:41:00,
2013-06-12 00:45:00,53.3,52.5,29.60,NW,309,0.0,0.0,97,0.00,,,0.01,Wunderground v.1.15,2013-06-12 04:45:00,
2013-06-12 00:51:00,53.2,52.4,29.60,NW,309,0.0,0.0,97,0.00,,,0.01,Wunderground v.1.15,2013-06-12 04:51:00,
2013-06-12 00:55:00,53.2,52.4,29.60,NW,309,0.0,0.0,97,0.00,,,0.01,Wunderground v.1.15,2013-06-12 04:55:00,
2013-06-12 01:01:00,53.2,52.4,29.60,NW,309,0.0,0.0,97,0.00,,,0.01,Wunderground v.1.15,2013-06-12 05:01:00,
2013-06-12 01:05:00,53.1,52.3,29.60,WNW,290,1.0,1.0,97,0.00,,,0.01,Wunderground v.1.15,2013-06-12 05:05:00,
2013-06-12 01:16:00,53.0,51.9,29.60,WNW,290,0.0,0.0,96,0.00,,,0.01,Wunderground v.1.15,2013-06-12 05:16:00,
2013-06-12 01:20:00,53.0,51.9,29.60,WNW,290,0.0,0.0,96,0.00,,,0.01,Wunderground v.1.15,2013-06-12 05:20:00,
2013-06-12 01:26:00,53.0,51.9,29.60,WNW,290,0.0,0.0,96,0.00,,,0.01,Wunderground v.1.15,2013-06-12 05:26:00,
2013-06-12 01:30:00,53.0,51.9,29.60,WNW,290,0.0,0.0,96,0.00,,,0.01,Wunderground v.1.15,2013-06-12 05:30:00,
2013-06-12 01:40:00,52.9,51.8,29.60,WNW,290,0.0,0.0,96,0.00,,,0.01,Wunderground v.1.15,2013-06-12 05:40:00,
2013-06-12 01:46:00,52.9,51.8,29.60,WNW,290,0.0,0.0,96,0.00,,,0.01,Wunderground v.1.15,2013-06-12 05:46:00,
2013-06-12 01:50:00,52.8,51.7,29.60,WNW,294,0.0,0.0,96,0.00,,,0.01,Wunderground v.1.15,2013-06-12 05:50:00,
2013-06-12 01:55:00,52.8,51.7,29.60,NNW,343,0.0,0.0,96,0.00,,,0.01,Wunderground v.1.15,2013-06-12 05:55:00,
2013-06-12 02:05:00,52.6,51.5,29.60,NW,312,0.0,1.0,96,0.00,,,0.01,Wunderground v.1.15,2013-06-12 06:05:00,
2013-06-12 02:11:00,52.4,51.3,29.60,West,277,1.0,3.0,96,0.00,,,0.01,Wunderground v.1.15,2013-06-12 06:11:00,
2013-06-12 02:15:00,52.3,51.2,29.60,WNW,291,1.0,1.0,96,0.00,,,0.01,Wunderground v.1.15,2013-06-12 06:15:00,
2013-06-12 02:20:00,52.3,51.2,29.60,WNW,291,1.0,1.0,96,0.00,,,0.01,Wunderground v.1.15,2013-06-12 06:20:00,
2013-06-12 02:26:00,52.2,51.1,29.60,West,273,1.0,1.0,96,0.00,,,0.01,Wunderground v.1.15,2013-06-12 06:26:00,
2013-06-12 02:30:00,52.1,51.0,29.60,West,274,1.0,2.0,96,0.00,,,0.01,Wunderground v.1.15,2013-06-12 06:30:00,
2013-06-12 03:00:00,51.7,50.6,29.61,SW,234,1.0,1.0,96,0.00,,,0.01,Wunderground v.1.15,2013-06-12 07:00:00,
2013-06-12 03:05:00,51.7,50.6,29.60,West,266,1.0,2.0,96,0.00,,,0.01,Wunderground v.1.15,2013-06-12 07:05:00,
2013-06-12 03:11:00,51.6,50.5,29.60,West,266,1.0,1.0,96,0.00,,,0.01,Wunderground v.1.15,2013-06-12 07:11:00,
2013-06-12 03:20:00,51.5,50.4,29.61,WSW,247,1.0,1.0,96,0.00,,,0.02,Wunderground v.1.15,2013-06-12 07:20:00,
2013-06-12 03:26:00,51.5,50.4,29.60,WSW,258,1.0,1.0,96,0.00,,,0.02,Wunderground v.1.15,2013-06-12 07:26:00,
2013-06-12 03:35:00,51.5,50.4,29.61,West,267,1.0,1.0,96,0.00,,,0.02,Wunderground v.1.15,2013-06-12 07:35:00,
2013-06-12 03:41:00,51.5,50.4,29.60,West,275,0.0,1.0,96,0.00,,,0.02,Wunderground v.1.15,2013-06-12 07:41:00,
2013-06-12 03:51:00,51.4,50.3,29.61,NNW,331,1.0,2.0,96,0.00,,,0.02,Wunderground v.1.15,2013-06-12 07:51:00,
2013-06-12 03:55:00,51.5,50.4,29.60,West,273,1.0,1.0,96,0.00,,,0.02,Wunderground v.1.15,2013-06-12 07:55:00,
2013-06-12 04:00:00,51.4,50.3,29.60,West,270,1.0,1.0,96,0.00,,,0.02,Wunderground v.1.15,2013-06-12 08:00:00,
2013-06-12 04:10:00,51.5,50.4,29.61,WSW,239,1.0,1.0,96,0.00,,,0.02,Wunderground v.1.15,2013-06-12 08:10:00,
2013-06-12 04:15:00,51.5,50.4,29.61,North,10,1.0,1.0,96,0.00,,,0.02,Wunderground v.1.15,2013-06-12 08:15:00,
2013-06-12 04:21:00,51.6,50.5,29.61,SW,232,1.0,1.0,96,0.00,,,0.02,Wunderground v.1.15,2013-06-12 08:21:00,
2013-06-12 04:30:00,51.6,50.5,29.61,WSW,240,1.0,2.0,96,0.00,,,0.02,Wunderground v.1.15,2013-06-12 08:30:00,
2013-06-12 04:40:00,51.6,50.5,29.61,WSW,240,1.0,1.0,96,0.00,,,0.02,Wunderground v.1.15,2013-06-12 08:40:00,
2013-06-12 04:46:00,51.7,50.6,29.61,SW,229,1.0,1.0,96,0.00,,,0.02,Wunderground v.1.15,2013-06-12 08:46:00,
2013-06-12 04:50:00,51.7,50.6,29.61,SW,223,2.0,3.0,96,0.00,,,0.02,Wunderground v.1.15,2013-06-12 08:50:00,
2013-06-12 04:56:00,51.7,50.6,29.61,West,272,2.0,3.0,96,0.00,,,0.02,Wunderground v.1.15,2013-06-12 08:56:00,
2013-06-12 05:05:00,51.7,50.6,29.62,SW,236,1.0,1.0,96,0.00,,,0.02,Wunderground v.1.15,2013-06-12 09:05:00,
2013-06-12 05:11:00,51.7,50.6,29.62,WNW,298,1.0,4.0,96,0.00,,,0.02,Wunderground v.1.15,2013-06-12 09:11:00,
2013-06-12 05:15:00,51.7,50.6,29.62,North,351,1.0,1.0,96,0.00,,,0.02,Wunderground v.1.15,2013-06-12 09:15:00,
2013-06-12 05:21:00,51.7,50.6,29.62,West,271,1.0,1.0,96,0.00,,,0.02,Wunderground v.1.15,2013-06-12 09:21:00,
2013-06-12 05:25:00,51.7,50.6,29.62,SW,227,2.0,2.0,96,0.00,,,0.02,Wunderground v.1.15,2013-06-12 09:25:00,
2013-06-12 05:30:00,51.7,50.6,29.63,SW,227,1.0,4.0,96,0.00,,,0.02,Wunderground v.1.15,2013-06-12 09:30:00,
2013-06-12 05:40:00,51.7,50.6,29.64,WNW,286,2.0,3.0,96,0.00,,,0.03,Wunderground v.1.15,2013-06-12 09:40:00,
2013-06-12 05:45:00,51.8,50.7,29.64,West,268,2.0,3.0,96,0.00,,,0.03,Wunderground v.1.15,2013-06-12 09:45:00,
2013-06-12 05:51:00,51.8,50.7,29.64,West,280,1.0,1.0,96,0.00,,,0.03,Wunderground v.1.15,2013-06-12 09:51:00,
2013-06-12 05:55:00,51.8,50.7,29.64,WNW,299,1.0,1.0,96,0.00,,,0.03,Wunderground v.1.15,2013-06-12 09:55:00,
2013-06-12 06:00:00,51.8,50.4,29.64,NW,310,1.0,3.0,95,0.00,,,0.03,Wunderground v.1.15,2013-06-12 10:00:00,
2013-06-12 06:10:00,51.8,50.7,29.64,WSW,240,1.0,3.0,96,0.00,,,0.03,Wunderground v.1.15,2013-06-12 10:10:00,
2013-06-12 06:15:00,51.8,50.7,29.64,North,5,1.0,3.0,96,0.00,,,0.03,Wunderground v.1.15,2013-06-12 10:15:00,
2013-06-12 06:20:00,51.8,50.4,29.64,WSW,254,2.0,2.0,95,0.00,,,0.03,Wunderground v.1.15,2013-06-12 10:20:00,
2013-06-12 06:25:00,51.7,50.3,29.65,NW,321,1.0,4.0,95,0.00,,,0.03,Wunderground v.1.15,2013-06-12 10:25:00,
2013-06-12 06:31:00,51.8,50.4,29.65,WSW,247,2.0,2.0,95,0.00,,,0.03,Wunderground v.1.15,2013-06-12 10:31:00,
2013-06-12 06:35:00,51.8,50.4,29.65,WNW,300,2.0,2.0,95,0.00,,,0.03,Wunderground v.1.15,2013-06-12 10:35:00,
2013-06-12 06:41:00,51.9,50.5,29.65,NW,321,2.0,2.0,95,0.00,,,0.03,Wunderground v.1.15,2013-06-12 10:41:00,
2013-06-12 06:46:00,51.9,50.5,29.65,WNW,292,2.0,2.0,95,0.00,,,0.03,Wunderground v.1.15,2013-06-12 10:46:00,
2013-06-12 06:50:00,51.9,50.5,29.65,NNW,332,2.0,3.0,95,0.00,,,0.03,Wunderground v.1.15,2013-06-12 10:50:00,
2013-06-12 06:56:00,52.0,50.6,29.65,North,355,2.0,3.0,95,0.00,,,0.03,Wunderground v.1.15,2013-06-12 10:56:00,
2013-06-12 07:00:00,52.0,50.6,29.66,WNW,286,2.0,2.0,95,0.00,,,0.03,Wunderground v.1.15,2013-06-12 11:00:00,
2013-06-12 07:06:00,52.1,50.7,29.66,SW,222,2.0,2.0,95,0.00,,,0.03,Wunderground v.1.15,2013-06-12 11:06:00,
2013-06-12 07:10:00,52.1,50.7,29.66,WSW,251,2.0,3.0,95,0.00,,,0.03,Wunderground v.1.15,2013-06-12 11:10:00,
2013-06-12 07:15:00,52.2,50.5,29.66,North,355,3.0,3.0,94,0.00,,,0.03,Wunderground v.1.15,2013-06-12 11:15:00,
2013-06-12 07:25:00,52.4,51.0,29.66,ENE,61,2.0,2.0,95,0.00,,,0.03,Wunderground v.1.15,2013-06-12 11:25:00,
2013-06-12 07:30:00,52.4,50.7,29.66,SSW,192,2.0,3.0,94,0.00,,,0.03,Wunderground v.1.15,2013-06-12 11:30:00,
2013-06-12 07:40:00,52.7,51.0,29.66,WNW,289,3.0,3.0,94,0.00,,,0.03,Wunderground v.1.15,2013-06-12 11:40:00,
2013-06-12 07:45:00,52.7,50.7,29.67,SW,229,3.0,3.0,93,0.00,,,0.03,Wunderground v.1.15,2013-06-12 11:45:00,
2013-06-12 07:51:00,52.8,50.8,29.67,WSW,254,3.0,3.0,93,0.00,,,0.03,Wunderground v.1.15,2013-06-12 11:51:00,
2013-06-12 07:55:00,52.8,50.8,29.66,North,360,3.0,4.0,93,0.00,,,0.03,Wunderground v.1.15,2013-06-12 11:55:00,
2013-06-12 08:00:00,52.8,50.8,29.67,West,259,3.0,3.0,93,0.00,,,0.03,Wunderground v.1.15,2013-06-12 12:00:00,
2013-06-12 08:06:00,52.9,50.6,29.67,North,5,4.0,4.0,92,0.00,,,0.03,Wunderground v.1.15,2013-06-12 12:06:00,
2013-06-12 08:10:00,53.0,50.7,29.67,NW,317,3.0,7.0,92,0.00,,,0.03,Wunderground v.1.15,2013-06-12 12:10:00,
2013-06-12 08:16:00,53.1,50.8,29.68,West,266,3.0,7.0,92,0.00,,,0.03,Wunderground v.1.15,2013-06-12 12:16:00,
2013-06-12 08:20:00,53.1,50.8,29.68,North,5,3.0,3.0,92,0.00,,,0.03,Wunderground v.1.15,2013-06-12 12:20:00,
2013-06-12 08:26:00,53.1,50.8,29.68,SSW,192,3.0,3.0,92,0.00,,,0.03,Wunderground v.1.15,2013-06-12 12:26:00,
2013-06-12 08:30:00,53.1,50.8,29.68,WSW,254,3.0,7.0,92,0.00,,,0.03,Wunderground v.1.15,2013-06-12 12:30:00,
2013-06-12 08:36:00,53.0,50.7,29.68,SSW,213,3.0,7.0,92,0.00,,,0.03,Wunderground v.1.15,2013-06-12 12:36:00,
2013-06-12 08:46:00,53.1,50.8,29.68,NW,319,3.0,4.0,92,0.00,,,0.03,Wunderground v.1.15,2013-06-12 12:46:00,
2013-06-12 08:50:00,53.2,50.9,29.68,WSW,238,4.0,4.0,92,0.00,,,0.03,Wunderground v.1.15,2013-06-12 12:50:00,
2013-06-12 09:11:00,53.8,51.2,29.68,WNW,290,3.0,9.0,91,0.00,,,0.03,Wunderground v.1.15,2013-06-12 13:11:00,
2013-06-12 09:15:00,54.0,51.4,29.68,WNW,300,3.0,9.0,91,0.00,,,0.03,Wunderground v.1.15,2013-06-12 13:15:00,
2013-06-12 09:25:00,54.3,51.1,29.69,WNW,296,5.0,5.0,89,0.00,,,0.03,Wunderground v.1.15,2013-06-12 13:25:00,
2013-06-12 09:31:00,54.4,51.2,29.69,SE,126,4.0,5.0,89,0.00,,,0.03,Wunderground v.1.15,2013-06-12 13:31:00,
2013-06-12 09:35:00,54.4,51.2,29.69,NW,310,4.0,7.0,89,0.00,,,0.03,Wunderground v.1.15,2013-06-12 13:35:00,
2013-06-12 09:41:00,54.5,51.3,29.69,NNW,342,5.0,7.0,89,0.00,,,0.03,Wunderground v.1.15,2013-06-12 13:41:00,
2013-06-12 09:45:00,54.4,50.9,29.69,North,360,5.0,5.0,88,0.00,,,0.03,Wunderground v.1.15,2013-06-12 13:45:00,
2013-06-12 09:55:00,54.5,51.3,29.70,North,5,4.0,4.0,89,0.00,,,0.03,Wunderground v.1.15,2013-06-12 13:55:00,
2013-06-12 10:01:00,54.6,51.4,29.70,SW,236,3.0,3.0,89,0.00,,,0.03,Wunderground v.1.15,2013-06-12 14:01:00,
2013-06-12 10:05:00,54.7,51.2,29.70,NNW,337,4.0,4.0,88,0.00,,,0.03,Wunderground v.1.15,2013-06-12 14:05:00,
2013-06-12 10:16:00,55.0,51.8,29.70,NW,314,4.0,4.0,89,0.00,,,0.03,Wunderground v.1.15,2013-06-12 14:16:00,
2013-06-12 10:25:00,55.0,51.8,29.70,NE,40,4.0,4.0,89,0.00,,,0.03,Wunderground v.1.15,2013-06-12 14:25:00,
2013-06-12 10:30:00,55.2,52.0,29.71,NW,320,2.0,9.0,89,0.00,,,0.03,Wunderground v.1.15,2013-06-12 14:30:00,
2013-06-12 10:36:00,55.3,51.8,29.71,SSE,166,3.0,3.0,88,0.00,,,0.03,Wunderground v.1.15,2013-06-12 14:36:00,
2013-06-12 10:40:00,55.4,51.6,29.71,North,349,4.0,4.0,87,0.00,,,0.03,Wunderground v.1.15,2013-06-12 14:40:00,
2013-06-12 10:50:00,55.7,51.9,29.72,NNW,327,3.0,3.0,87,0.00,,,0.03,Wunderground v.1.15,2013-06-12 14:50:00,
2013-06-12 10:56:00,55.7,51.6,29.72,WNW,283,5.0,10.0,86,0.00,,,0.03,Wunderground v.1.15,2013-06-12 14:56:00,
2013-06-12 11:01:00,55.8,51.7,29.72,NNW,347,5.0,5.0,86,0.00,,,0.03,Wunderground v.1.15,2013-06-12 15:01:00,
2013-06-12 11:06:00,55.9,51.8,29.72,SSW,209,4.0,5.0,86,0.00,,,0.03,Wunderground v.1.15,2013-06-12 15:06:00,
2013-06-12 11:10:00,56.0,51.9,29.72,NNW,336,3.0,4.0,86,0.00,,,0.03,Wunderground v.1.15,2013-06-12 15:10:00,
2013-06-12 11:20:00,56.6,52.5,29.73,NW,326,5.0,6.0,86,0.00,,,0.03,Wunderground v.1.15,2013-06-12 15:20:00,
2013-06-12 11:26:00,56.8,52.0,29.73,NNE,27,4.0,8.0,84,0.00,,,0.03,Wunderground v.1.15,2013-06-12 15:26:00,
2013-06-12 11:36:00,56.9,52.1,29.73,SSW,207,5.0,5.0,84,0.00,,,0.03,Wunderground v.1.15,2013-06-12 15:36:00,
2013-06-12 11:40:00,57.1,52.0,29.74,WNW,288,3.0,4.0,83,0.00,,,0.03,Wunderground v.1.15,2013-06-12 15:40:00,
2013-06-12 11:50:00,57.5,52.7,29.74,SE,139,5.0,5.0,84,0.00,,,0.03,Wunderground v.1.15,2013-06-12 15:50:00,
2013-06-12 11:56:00,57.6,52.5,29.75,SSE,157,3.0,5.0,83,0.00,,,0.03,Wunderground v.1.15,2013-06-12 15:56:00,
2013-06-12 12:01:00,57.5,52.4,29.75,WNW,286,4.0,4.0,83,0.00,,,0.03,Wunderground v.1.15,2013-06-12 16:01:00,
2013-06-12 12:11:00,57.6,52.5,29.75,NNW,338,4.0,4.0,83,0.00,,,0.03,Wunderground v.1.15,2013-06-12 16:11:00,
2013-06-12 12:21:00,58.1,52.6,29.75,North,360,3.0,4.0,82,0.00,,,0.03,Wunderground v.1.15,2013-06-12 16:21:00,
2013-06-12 12:25:00,58.0,52.5,29.75,North,350,4.0,8.0,82,0.00,,,0.03,Wunderground v.1.15,2013-06-12 16:25:00,
2013-06-12 12:35:00,58.3,52.8,29.75,WNW,283,6.0,6.0,82,0.00,,,0.03,Wunderground v.1.15,2013-06-12 16:35:00,
2013-06-12 12:46:00,58.7,52.9,29.76,WSW,256,5.0,5.0,81,0.00,,,0.03,Wunderground v.1.15,2013-06-12 16:46:00,
2013-06-12 12:56:00,59.3,52.8,29.76,NNW,333,6.0,12.0,79,0.00,,,0.03,Wunderground v.1.15,2013-06-12 16:56:00,
2013-06-12 13:01:00,59.6,53.1,29.76,NW,311,6.0,6.0,79,0.00,,,0.03,Wunderground v.1.15,2013-06-12 17:01:00,
2013-06-12 13:05:00,59.5,52.6,29.76,North,355,7.0,7.0,78,0.00,,,0.03,Wunderground v.1.15,2013-06-12 17:05:00,
2013-06-12 13:15:00,59.8,53.3,29.76,NNE,27,5.0,6.0,79,0.00,,,0.03,Wunderground v.1.15,2013-06-12 17:15:00,
2013-06-12 13:21:00,59.8,52.9,29.76,North,355,6.0,8.0,78,0.00,,,0.03,Wunderground v.1.15,2013-06-12 17:21:00,
2013-06-12 13:25:00,60.2,54.0,29.76,North,5,6.0,7.0,80,0.00,,,0.03,Wunderground v.1.15,2013-06-12 17:25:00,
2013-06-12 13:30:00,60.5,53.6,29.76,NNE,27,6.0,12.0,78,0.00,,,0.03,Wunderground v.1.15,2013-06-12 17:30:00,
2013-06-12 13:36:00,60.5,53.3,29.76,North,355,7.0,7.0,77,0.00,,,0.03,Wunderground v.1.15,2013-06-12 17:36:00,
2013-06-12 13:46:00,60.7,53.1,29.76,NNW,340,6.0,11.0,76,0.00,,,0.03,Wunderground v.1.15,2013-06-12 17:46:00,
2013-06-12 13:51:00,60.6,53.0,29.76,NE,40,7.0,11.0,76,0.00,,,0.03,Wunderground v.1.15,2013-06-12 17:51:00,
2013-06-12 14:01:00,61.0,52.7,29.77,NNW,341,3.0,6.0,74,0.00,,,0.03,Wunderground v.1.15,2013-06-12 18:01:00,
2013-06-12 14:05:00,60.9,53.3,29.77,WNW,288,4.0,6.0,76,0.00,,,0.03,Wunderground v.1.15,2013-06-12 18:05:00,
2013-06-12 14:15:00,60.8,52.8,29.77,WNW,284,4.0,9.0,75,0.00,,,0.03,Wunderground v.1.15,2013-06-12 18:15:00,
2013-06-12 14:36:00,60.4,52.4,29.78,NNE,14,5.0,6.0,75,0.00,,,0.03,Wunderground v.1.15,2013-06-12 18:36:00,
2013-06-12 14:46:00,59.9,52.0,29.78,NNW,344,6.0,6.0,75,0.00,,,0.03,Wunderground v.1.15,2013-06-12 18:46:00,
2013-06-12 14:50:00,59.9,52.3,29.78,North,355,5.0,6.0,76,0.00,,,0.03,Wunderground v.1.15,2013-06-12 18:50:00,
2013-06-12 15:00:00,60.3,52.3,29.77,West,263,7.0,7.0,75,0.00,,,0.03,Wunderground v.1.15,2013-06-12 19:00:00,
2013-06-12 15:06:00,60.5,52.2,29.77,NW,322,7.0,11.0,74,0.00,,,0.03,Wunderground v.1.15,2013-06-12 19:06:00,
2013-06-12 15:16:00,60.9,52.6,29.77,WNW,298,5.0,5.0,74,0.00,,,0.03,Wunderground v.1.15,2013-06-12 19:16:00,
2013-06-12 15:25:00,60.7,52.4,29.78,East,95,4.0,5.0,74,0.00,,,0.03,Wunderground v.1.15,2013-06-12 19:25:00,
2013-06-12 15:31:00,60.7,52.4,29.78,North,360,4.0,8.0,74,0.00,,,0.03,Wunderground v.1.15,2013-06-12 19:31:00,
2013-06-12 15:46:00,61.0,53.0,29.78,WSW,254,3.0,3.0,75,0.00,,,0.03,Wunderground v.1.15,2013-06-12 19:46:00,
2013-06-12 15:51:00,61.1,53.1,29.78,WSW,257,4.0,4.0,75,0.00,,,0.03,Wunderground v.1.15,2013-06-12 19:51:00,
2013-06-12 16:00:00,61.3,52.6,29.78,North,349,4.0,4.0,73,0.00,,,0.03,Wunderground v.1.15,2013-06-12 20:00:00,
2013-06-12 16:10:00,61.2,52.1,29.79,NNE,17,4.0,4.0,72,0.00,,,0.03,Wunderground v.1.15,2013-06-12 20:10:00,
2013-06-12 16:15:00,61.2,52.5,29.79,North,5,3.0,10.0,73,0.00,,,0.03,Wunderground v.1.15,2013-06-12 20:15:00,
2013-06-12 16:21:00,61.5,52.8,29.78,WNW,286,4.0,9.0,73,0.00,,,0.03,Wunderground v.1.15,2013-06-12 20:21:00,
2013-06-12 16:25:00,61.6,52.5,29.79,North,351,3.0,9.0,72,0.00,,,0.03,Wunderground v.1.15,2013-06-12 20:25:00,
2013-06-12 16:31:00,61.9,52.8,29.79,NNW,346,3.0,4.0,72,0.00,,,0.03,Wunderground v.1.15,2013-06-12 20:31:00,
2013-06-12 16:35:00,62.0,52.5,29.78,North,355,3.0,4.0,71,0.00,,,0.03,Wunderground v.1.15,2013-06-12 20:35:00,
2013-06-12 16:40:00,62.3,52.8,29.78,West,271,4.0,6.0,71,0.00,,,0.03,Wunderground v.1.15,2013-06-12 20:40:00,
2013-06-12 16:55:00,63.6,52.8,29.79,NNW,334,4.0,4.0,68,0.00,,,0.03,Wunderground v.1.15,2013-06-12 20:55:00,
2013-06-12 17:00:00,63.4,52.2,29.79,NW,308,3.0,6.0,67,0.00,,,0.03,Wunderground v.1.15,2013-06-12 21:00:00,
2013-06-12 17:05:00,63.0,52.3,29.79,West,262,3.0,6.0,68,0.00,,,0.03,Wunderground v.1.15,2013-06-12 21:05:00,
2013-06-12 17:11:00,62.7,52.4,29.80,North,5,3.0,3.0,69,0.00,,,0.03,Wunderground v.1.15,2013-06-12 21:11:00,
2013-06-12 17:15:00,62.5,51.8,29.79,NW,325,3.0,3.0,68,0.00,,,0.03,Wunderground v.1.15,2013-06-12 21:15:00,
2013-06-12 17:20:00,62.4,52.1,29.79,NNW,340,3.0,6.0,69,0.00,,,0.03,Wunderground v.1.15,2013-06-12 21:20:00,
2013-06-12 17:25:00,62.8,53.3,29.79,NE,36,2.0,7.0,71,0.00,,,0.03,Wunderground v.1.15,2013-06-12 21:25:00,
2013-06-12 17:31:00,63.0,52.7,29.79,SW,231,2.0,2.0,69,0.00,,,0.03,Wunderground v.1.15,2013-06-12 21:31:00,
2013-06-12 17:40:00,63.5,52.7,29.78,NNE,15,2.0,2.0,68,0.00,,,0.03,Wunderground v.1.15,2013-06-12 21:40:00,
2013-06-12 17:45:00,64.2,53.8,29.78,North,5,2.0,2.0,69,0.00,,,0.03,Wunderground v.1.15,2013-06-12 21:45:00,
2013-06-12 17:50:00,64.4,52.8,29.78,NNW,340,2.0,4.0,66,0.00,,,0.03,Wunderground v.1.15,2013-06-12 21:50:00,
2013-06-12 18:00:00,64.0,52.4,29.78,North,360,4.0,4.0,66,0.00,,,0.03,Wunderground v.1.15,2013-06-12 22:00:00,
2013-06-12 18:06:00,64.3,51.9,29.77,NNW,331,4.0,4.0,64,0.00,,,0.03,Wunderground v.1.15,2013-06-12 22:06:00,
2013-06-12 18:16:00,64.1,51.7,29.77,NNE,20,3.0,3.0,64,0.00,,,0.03,Wunderground v.1.15,2013-06-12 22:16:00,
2013-06-12 18:26:00,63.6,52.0,29.78,North,9,3.0,3.0,66,0.00,,,0.03,Wunderground v.1.15,2013-06-12 22:26:00,
2013-06-12 18:30:00,63.3,52.2,29.78,North,355,2.0,3.0,67,0.00,,,0.03,Wunderground v.1.15,2013-06-12 22:30:00,
2013-06-12 18:36:00,63.2,52.5,29.78,North,355,2.0,2.0,68,0.00,,,0.03,Wunderground v.1.15,2013-06-12 22:36:00,
2013-06-12 18:41:00,63.3,53.3,29.78,NNE,13,3.0,3.0,70,0.00,,,0.03,Wunderground v.1.15,2013-06-12 22:41:00,
2013-06-12 18:51:00,63.4,53.4,29.79,NW,318,1.0,3.0,70,0.00,,,0.03,Wunderground v.1.15,2013-06-12 22:51:00,
2013-06-12 18:56:00,63.1,53.2,29.79,SE,136,1.0,1.0,70,0.00,,,0.03,Wunderground v.1.15,2013-06-12 22:56:00,
2013-06-12 19:06:00,62.6,53.4,29.80,WNW,303,1.0,4.0,72,0.00,,,0.03,Wunderground v.1.15,2013-06-12 23:06:00,
2013-06-12 19:15:00,62.0,52.9,29.80,West,281,2.0,2.0,72,0.00,,,0.03,Wunderground v.1.15,2013-06-12 23:15:00,
2013-06-12 19:21:00,61.8,52.7,29.80,SW,217,1.0,2.0,72,0.00,,,0.03,Wunderground v.1.15,2013-06-12 23:21:00,
2013-06-12 19:30:00,61.2,52.8,29.80,SW,235,2.0,2.0,74,0.00,,,0.03,Wunderground v.1.15,2013-06-12 23:30:00,
2013-06-12 19:35:00,60.9,53.3,29.80,SW,235,1.0,1.0,76,0.00,,,0.03,Wunderground v.1.15,2013-06-12 23:35:00,
2013-06-12 19:41:00,60.7,53.4,29.80,SW,235,0.0,1.0,77,0.00,,,0.03,Wunderground v.1.15,2013-06-12 23:41:00,
2013-06-12 19:45:00,60.5,54.0,29.81,SW,235,0.0,0.0,79,0.00,,,0.03,Wunderground v.1.15,2013-06-12 23:45:00,
2013-06-12 19:51:00,60.4,53.9,29.81,SW,235,0.0,0.0,79,0.00,,,0.03,Wunderground v.1.15,2013-06-12 23:51:00,
2013-06-12 19:56:00,60.2,53.7,29.81,SW,235,0.0,0.0,79,0.00,,,0.03,Wunderground v.1.15,2013-06-12 23:56:00,
2013-06-12 20:00:00,60.0,54.2,29.81,SW,235,0.0,0.0,81,0.00,,,0.03,Wunderground v.1.15,2013-06-13 00:00:00,
2013-06-12 20:06:00,59.7,53.9,29.81,SW,235,0.0,0.0,81,0.00,,,0.03,Wunderground v.1.15,2013-06-13 00:06:00,
2013-06-12 20:16:00,58.7,53.5,29.81,SW,235,0.0,0.0,83,0.00,,,0.03,Wunderground v.1.15,2013-06-13 00:16:00,
2013-06-12 20:25:00,57.6,53.1,29.81,SW,235,0.0,0.0,85,0.00,,,0.03,Wunderground v.1.15,2013-06-13 00:25:00,
2013-06-12 20:31:00,57.0,52.5,29.81,SW,235,0.0,0.0,85,0.00,,,0.03,Wunderground v.1.15,2013-06-13 00:31:00,
2013-06-12 20:35:00,56.6,52.8,29.81,SW,235,0.0,0.0,87,0.00,,,0.03,Wunderground v.1.15,2013-06-13 00:35:00,
2013-06-12 20:40:00,56.1,52.6,29.81,SW,235,0.0,0.0,88,0.00,,,0.03,Wunderground v.1.15,2013-06-13 00:40:00,
2013-06-12 20:50:00,55.4,52.2,29.82,SW,235,0.0,0.0,89,0.00,,,0.03,Wunderground v.1.15,2013-06-13 00:50:00,
2013-06-12 20:55:00,55.2,52.3,29.81,SW,235,0.0,0.0,90,0.00,,,0.03,Wunderground v.1.15,2013-06-13 00:55:00,
2013-06-12 21:01:00,55.1,52.5,29.82,SW,235,0.0,0.0,91,0.00,,,0.03,Wunderground v.1.15,2013-06-13 01:01:00,
2013-06-12 21:05:00,54.9,52.3,29.82,SW,235,0.0,0.0,91,0.00,,,0.03,Wunderground v.1.15,2013-06-13 01:05:00,
2013-06-12 21:10:00,54.8,52.5,29.82,SW,235,0.0,0.0,92,0.00,,,0.03,Wunderground v.1.15,2013-06-13 01:10:00,
2013-06-12 21:16:00,54.7,52.4,29.82,SW,235,0.0,0.0,92,0.00,,,0.03,Wunderground v.1.15,2013-06-13 01:16:00,
2013-06-12 21:20:00,54.7,52.4,29.82,SW,235,0.0,0.0,92,0.00,,,0.03,Wunderground v.1.15,2013-06-13 01:20:00,
2013-06-12 21:25:00,54.7,52.4,29.82,SW,235,0.0,0.0,92,0.00,,,0.03,Wunderground v.1.15,2013-06-13 01:25:00,
2013-06-12 21:35:00,54.6,52.6,29.83,SW,235,0.0,0.0,93,0.00,,,0.03,Wunderground v.1.15,2013-06-13 01:35:00,
2013-06-12 21:41:00,54.6,52.6,29.83,SW,235,0.0,0.0,93,0.00,,,0.03,Wunderground v.1.15,2013-06-13 01:41:00,
2013-06-12 21:45:00,54.6,52.6,29.83,SW,235,0.0,0.0,93,0.00,,,0.03,Wunderground v.1.15,2013-06-13 01:45:00,
2013-06-12 21:50:00,54.6,52.6,29.84,SW,235,0.0,0.0,93,0.00,,,0.03,Wunderground v.1.15,2013-06-13 01:50:00,
2013-06-12 21:56:00,54.5,52.2,29.85,ENE,71,2.0,2.0,92,0.00,,,0.03,Wunderground v.1.15,2013-06-13 01:56:00,
2013-06-12 22:00:00,55.0,52.4,29.85,WSW,242,2.0,2.0,91,0.00,,,0.03,Wunderground v.1.15,2013-06-13 02:00:00,
2013-06-12 22:06:00,55.5,52.0,29.85,North,360,2.0,2.0,88,0.00,,,0.03,Wunderground v.1.15,2013-06-13 02:06:00,
2013-06-12 22:10:00,55.9,52.4,29.85,SE,130,1.0,1.0,88,0.00,,,0.03,Wunderground v.1.15,2013-06-13 02:10:00,
2013-06-12 22:15:00,56.0,52.2,29.85,SE,130,0.0,1.0,87,0.00,,,0.03,Wunderground v.1.15,2013-06-13 02:15:00,
2013-06-12 22:21:00,56.1,52.6,29.85,SE,130,0.0,0.0,88,0.00,,,0.03,Wunderground v.1.15,2013-06-13 02:21:00,
2013-06-12 22:26:00,55.9,52.4,29.85,SE,130,0.0,0.0,88,0.00,,,0.03,Wunderground v.1.15,2013-06-13 02:26:00,
2013-06-12 22:30:00,55.8,52.6,29.85,SE,130,0.0,0.0,89,0.00,,,0.03,Wunderground v.1.15,2013-06-13 02:30:00,
2013-06-12 22:35:00,55.5,52.3,29.84,SE,130,0.0,0.0,89,0.00,,,0.03,Wunderground v.1.15,2013-06-13 02:35:00,
2013-06-12 22:40:00,55.3,52.1,29.84,SE,130,0.0,0.0,89,0.00,,,0.03,Wunderground v.1.15,2013-06-13 02:40:00,
2013-06-12 22:46:00,55.0,52.1,29.84,SE,130,0.0,0.0,90,0.00,,,0.03,Wunderground v.1.15,2013-06-13 02:46:00,
2013-06-12 22:51:00,54.8,51.9,29.84,SE,130,0.0,0.0,90,0.00,,,0.03,Wunderground v.1.15,2013-06-13 02:51:00,
2013-06-12 22:55:00,54.6,52.0,29.83,SE,130,0.0,0.0,91,0.00,,,0.03,Wunderground v.1.15,2013-06-13 02:55:00,
2013-06-12 23:00:00,54.4,51.8,29.83,SE,130,0.0,0.0,91,0.00,,,0.03,Wunderground v.1.15,2013-06-13 03:00:00,
2013-06-12 23:06:00,54.0,51.7,29.83,SE,130,0.0,0.0,92,0.00,,,0.03,Wunderground v.1.15,2013-06-13 03:06:00,
2013-06-12 23:15:00,53.4,51.1,29.83,SSW,201,0.0,0.0,92,0.00,,,0.03,Wunderground v.1.15,2013-06-13 03:15:00,
2013-06-12 23:20:00,53.2,50.9,29.83,SSW,201,0.0,0.0,92,0.00,,,0.03,Wunderground v.1.15,2013-06-13 03:20:00,
2013-06-12 23:26:00,53.0,50.7,29.83,SSW,201,0.0,0.0,92,0.00,,,0.03,Wunderground v.1.15,2013-06-13 03:26:00,
2013-06-12 23:30:00,52.8,50.5,29.83,SSW,201,0.0,0.0,92,0.00,,,0.03,Wunderground v.1.15,2013-06-13 03:30:00,
2013-06-12 23:35:00,52.7,50.7,29.83,SSW,201,0.0,0.0,93,0.00,,,0.03,Wunderground v.1.15,2013-06-13 03:35:00,
2013-06-12 23:40:00,52.5,50.5,29.82,SSW,201,0.0,0.0,93,0.00,,,0.03,Wunderground v.1.15,2013-06-13 03:40:00,
2013-06-12 23:45:00,52.4,50.4,29.82,SSW,201,0.0,0.0,93,0.00,,,0.03,Wunderground v.1.15,2013-06-13 03:45:00,
2013-06-12 23:55:00,52.2,50.5,29.83,SSW,201,0.0,0.0,94,0.00,,,0.03,Wunderground v.1.15,2013-06-13 03:55:00,